Time;durP1;ratioP1;P1;durP2;ratioP2;P2;SDS_P1;SDS_P2;PMS_P1;PMS_P2;Temp;Humidity;BMP_temperature;BMP_pressure;BME280_temperature;BME280_humidity;BME280_pressure;Samples;Min_cycle;Max_cycle;Signal;HPM_P1;HPM_P2
2022/04/10 00:01:41;;;;;;;21.30;13.90;;;;;;;9.41;100.00;99947.00;1759060;81;21548;-77
2022/04/10 00:04:10;;;;;;;19.55;12.75;;;;;;;9.41;100.00;99943.10;1759491;81;21110;-81
2022/04/10 00:06:37;;;;;;;20.15;12.20;;;;;;;9.43;100.00;99946.87;1769985;81;21047;-77
2022/04/10 00:09:05;;;;;;;23.73;13.38;;;;;;;9.42;100.00;99942.61;1770598;81;21883;-77
2022/04/10 00:11:34;;;;;;;18.75;13.50;;;;;;;9.41;100.00;99945.70;1770848;81;21501;-78
2022/04/10 00:14:03;;;;;;;20.40;12.98;;;;;;;9.39;100.00;99943.70;1770680;80;21038;-77
2022/04/10 00:16:31;;;;;;;18.90;12.63;;;;;;;9.37;100.00;99948.18;1770380;81;21020;-80
2022/04/10 00:19:04;;;;;;;18.10;13.55;;;;;;;9.34;100.00;99942.41;1770686;81;21079;-78
2022/04/10 00:21:28;;;;;;;23.10;13.88;;;;;;;9.31;100.00;99951.28;1767341;81;20948;-78
2022/04/10 00:23:55;;;;;;;27.50;14.58;;;;;;;9.29;100.00;99956.58;1770853;81;21079;-77
2022/04/10 00:26:24;;;;;;;21.52;13.32;;;;;;;9.30;100.00;99956.13;1770728;81;21616;-85
2022/04/10 00:28:52;;;;;;;17.95;12.63;;;;;;;9.28;100.00;99955.41;1770538;81;21244;-82
2022/04/10 00:31:19;;;;;;;23.55;13.55;;;;;;;9.25;100.00;99950.48;1770032;81;21495;-80
2022/04/10 00:33:46;;;;;;;21.87;14.43;;;;;;;9.23;100.00;99957.08;1770646;81;21523;-77
2022/04/10 00:36:14;;;;;;;22.40;13.90;;;;;;;9.19;100.00;99949.65;1770676;81;21475;-78
2022/04/10 00:38:41;;;;;;;21.40;13.58;;;;;;;9.15;100.00;99946.02;1770377;81;21043;-78
2022/04/10 00:41:09;;;;;;;17.05;13.13;;;;;;;9.11;100.00;99941.19;1770940;81;21133;-84
2022/04/10 00:43:38;;;;;;;25.27;14.33;;;;;;;9.05;100.00;99935.19;1770221;81;21015;-84
2022/04/10 00:46:07;;;;;;;21.40;13.53;;;;;;;9.00;100.00;99940.26;1770354;81;21122;-77
2022/04/10 00:48:34;;;;;;;24.60;14.10;;;;;;;8.97;100.00;99942.27;1770603;81;21309;-78
2022/04/10 00:53:48;;;;;;;20.82;13.85;;;;;;;8.92;100.00;99934.84;1775173;80;21023;-81
2022/04/10 00:56:17;;;;;;;21.45;13.43;;;;;;;8.87;100.00;99931.80;1775570;80;21051;-77
2022/04/10 00:58:44;;;;;;;21.48;13.62;;;;;;;8.84;100.00;99927.68;1775554;80;21078;-78
2022/04/10 01:01:12;;;;;;;22.10;14.80;;;;;;;8.82;100.00;99932.62;1775509;80;21699;-77
2022/04/10 01:03:40;;;;;;;20.25;14.15;;;;;;;8.79;100.00;99925.90;1775616;80;21043;-77
2022/04/10 01:06:08;;;;;;;20.50;14.10;;;;;;;8.76;100.00;99923.56;1775367;80;21073;-77
2022/04/10 01:08:35;;;;;;;26.10;14.80;;;;;;;8.73;100.00;99923.79;1776039;80;21517;-77
2022/04/10 01:11:03;;;;;;;23.85;15.05;;;;;;;8.70;100.00;99921.91;1776068;80;21520;-78
2022/04/10 01:13:30;;;;;;;22.75;13.78;;;;;;;8.68;100.00;99919.45;1774391;80;21703;-79
2022/04/10 01:15:59;;;;;;;20.37;14.23;;;;;;;8.67;100.00;99912.11;1775287;80;21047;-77
2022/04/10 01:18:26;;;;;;;17.60;13.22;;;;;;;8.66;100.00;99912.25;1775838;80;20984;-77
2022/04/10 01:20:55;;;;;;;21.65;14.50;;;;;;;8.64;100.00;99908.48;1752318;80;21604;-77
2022/04/10 01:23:23;;;;;;;17.02;13.38;;;;;;;8.62;100.00;99899.98;1775246;80;21099;-78
2022/04/10 01:25:52;;;;;;;19.87;14.18;;;;;;;8.62;100.00;99901.73;1775349;80;22347;-79
2022/04/10 01:28:19;;;;;;;22.07;14.10;;;;;;;8.60;100.00;99888.89;1775245;80;21028;-77
2022/04/10 01:30:48;;;;;;;19.42;15.00;;;;;;;8.58;100.00;99880.39;1775666;80;21070;-84
2022/04/10 01:33:17;;;;;;;22.87;14.13;;;;;;;8.57;100.00;99885.25;1774873;80;21134;-85
2022/04/10 01:35:45;;;;;;;22.20;15.15;;;;;;;8.57;100.00;99874.03;1775469;80;21050;-83
2022/04/10 01:38:16;;;;;;;22.22;14.45;;;;;;;8.55;100.00;99871.56;1775575;80;21557;-78
2022/04/10 01:40:47;;;;;;;19.77;13.95;;;;;;;8.53;100.00;99881.23;1771808;80;21058;-77
2022/04/10 01:43:15;;;;;;;24.82;14.53;;;;;;;8.53;100.00;99885.13;1775681;80;21059;-78
2022/04/10 01:45:42;;;;;;;24.55;14.95;;;;;;;8.51;100.00;99890.45;1775736;80;21050;-78
2022/04/10 01:48:13;;;;;;;21.07;14.00;;;;;;;8.51;100.00;99889.15;1775092;80;21038;-79
2022/04/10 01:50:42;;;;;;;19.37;13.60;;;;;;;8.53;100.00;99899.39;1774972;80;21889;-78
2022/04/10 01:53:09;;;;;;;20.10;14.03;;;;;;;8.53;100.00;99905.40;1773017;80;21544;-78
2022/04/10 01:55:36;;;;;;;22.30;14.05;;;;;;;8.55;100.00;99900.11;1771332;81;21031;-77
2022/04/10 01:58:04;;;;;;;19.23;14.40;;;;;;;8.56;100.00;99891.84;1771739;81;21000;-77
2022/04/10 02:00:33;;;;;;;22.27;14.47;;;;;;;8.56;100.00;99893.98;1771289;80;21094;-83
2022/04/10 02:03:02;;;;;;;19.62;13.60;;;;;;;8.56;100.00;99898.33;1771626;80;21149;-78
2022/04/10 02:05:29;;;;;;;21.05;13.00;;;;;;;8.56;100.00;99896.58;1771999;81;21142;-77
2022/04/10 02:07:56;;;;;;;23.85;13.58;;;;;;;8.58;100.00;99892.06;1771406;81;21043;-77
2022/04/10 02:10:25;;;;;;;20.80;14.55;;;;;;;8.60;100.00;99884.18;1771690;81;21027;-78
2022/04/10 02:12:53;;;;;;;19.90;13.20;;;;;;;8.61;100.00;99890.54;1771503;81;21078;-83
2022/04/10 02:15:22;;;;;;;23.20;13.70;;;;;;;8.64;100.00;99897.25;1771720;80;20999;-77
2022/04/10 02:17:49;;;;;;;15.68;13.13;;;;;;;8.66;100.00;99901.86;1771189;81;21090;-77
2022/04/10 02:20:18;;;;;;;22.32;14.18;;;;;;;8.67;100.00;99903.03;1771262;80;21045;-78
2022/04/10 02:22:54;;;;;;;17.10;12.85;;;;;;;8.71;100.00;99903.61;1739479;81;21035;-77
2022/04/10 02:25:25;;;;;;;19.85;12.75;;;;;;;8.72;100.00;99903.97;1689729;84;21049;-77
2022/04/10 02:27:55;;;;;;;22.20;14.50;;;;;;;8.73;100.00;99897.84;1747860;81;21039;-82
2022/04/10 02:30:23;;;;;;;18.37;12.82;;;;;;;8.74;100.00;99896.89;1742865;81;21793;-78
2022/04/10 02:32:51;;;;;;;23.80;14.43;;;;;;;8.75;100.00;99892.06;1771328;81;21173;-78
2022/04/10 02:35:18;;;;;;;23.52;14.13;;;;;;;8.78;100.00;99894.87;1771432;81;21498;-77
2022/04/10 02:37:46;;;;;;;25.65;14.35;;;;;;;8.79;100.00;99899.12;1768619;81;21008;-78
2022/04/10 02:40:14;;;;;;;17.67;13.68;;;;;;;8.81;100.00;99903.25;1738305;82;21097;-77
2022/04/10 02:42:43;;;;;;;23.12;14.20;;;;;;;8.83;100.00;99913.05;1737926;82;21178;-78
2022/04/10 02:45:12;;;;;;;28.65;13.58;;;;;;;8.84;100.00;99912.10;1738594;82;21052;-78
2022/04/10 02:47:42;;;;;;;17.07;13.20;;;;;;;8.87;100.00;99901.10;1738634;82;21079;-78
2022/04/10 02:50:09;;;;;;;19.57;13.55;;;;;;;8.88;100.00;99913.98;1717078;82;21122;-77
2022/04/10 02:52:37;;;;;;;23.65;14.18;;;;;;;8.90;100.00;99916.45;1744933;80;22222;-78
2022/04/10 02:55:05;;;;;;;21.90;13.80;;;;;;;8.90;100.00;99915.15;1773804;80;21564;-78
2022/04/10 02:57:32;;;;;;;21.17;12.70;;;;;;;8.90;100.00;99919.05;1773963;80;21016;-79
2022/04/10 03:00:00;;;;;;;21.45;14.00;;;;;;;8.91;100.00;99928.48;1774053;80;21003;-78
2022/04/10 03:02:28;;;;;;;21.10;14.15;;;;;;;8.89;100.00;99935.11;1773985;80;20983;-78
2022/04/10 03:04:55;;;;;;;20.52;13.55;;;;;;;8.89;100.00;99940.75;1775593;80;21774;-79
2022/04/10 03:07:23;;;;;;;20.57;13.75;;;;;;;8.86;100.00;99945.72;1774929;80;21091;-92
2022/04/10 03:09:51;;;;;;;23.40;13.80;;;;;;;8.84;100.00;99944.55;1775203;80;21584;-85
2022/04/10 03:12:20;;;;;;;21.93;13.62;;;;;;;8.86;100.00;99957.86;1775608;80;21634;-78
2022/04/10 03:14:49;;;;;;;21.48;13.50;;;;;;;8.86;100.00;99959.16;1775291;80;21756;-80
2022/04/10 03:17:16;;;;;;;16.93;11.43;;;;;;;8.87;100.00;99959.52;1775619;80;22084;-78
2022/04/10 03:19:44;;;;;;;19.70;12.68;;;;;;;8.89;100.00;99968.02;1775799;80;21034;-81
2022/04/10 03:22:12;;;;;;;21.90;13.68;;;;;;;8.91;100.00;99960.45;1775712;79;21058;-77
2022/04/10 03:24:39;;;;;;;19.15;12.98;;;;;;;8.93;100.00;99961.66;1775881;79;21038;-78
2022/04/10 03:27:07;;;;;;;23.90;12.50;;;;;;;8.94;100.00;99964.58;1775986;79;21105;-78
2022/04/10 03:29:35;;;;;;;18.05;12.15;;;;;;;8.95;100.00;99963.18;1775751;80;21199;-79
2022/04/10 03:32:04;;;;;;;24.32;12.73;;;;;;;8.98;100.00;99960.81;1775412;79;21038;-80
2022/04/10 03:34:32;;;;;;;18.82;12.20;;;;;;;9.01;100.00;99967.07;1775296;79;21113;-77
2022/04/10 03:36:59;;;;;;;20.62;13.03;;;;;;;9.00;100.00;99955.84;1775559;79;20967;-78
2022/04/10 03:39:27;;;;;;;24.00;13.35;;;;;;;8.99;100.00;99955.97;1775603;80;21041;-79
2022/04/10 03:41:54;;;;;;;21.15;12.70;;;;;;;8.96;100.00;99951.85;1791483;79;21049;-77
2022/04/10 03:44:21;;;;;;;22.40;13.15;;;;;;;8.94;100.00;99953.73;1775765;80;21018;-77
2022/04/10 03:46:49;;;;;;;20.37;13.15;;;;;;;8.95;100.00;99959.73;1775631;79;20979;-78
2022/04/10 03:49:16;;;;;;;23.22;13.72;;;;;;;8.95;100.00;99963.63;1791289;79;21085;-77
2022/04/10 03:51:43;;;;;;;19.55;13.35;;;;;;;8.95;100.00;99961.88;1775512;80;21256;-77
2022/04/10 03:54:11;;;;;;;24.37;12.90;;;;;;;8.99;100.00;99967.66;1757239;79;21496;-81
2022/04/10 03:56:40;;;;;;;19.98;13.08;;;;;;;9.04;100.00;99973.30;1772242;80;21122;-78
2022/04/10 03:59:08;;;;;;;18.80;12.80;;;;;;;9.09;100.00;99970.34;1771753;81;21079;-77
2022/04/10 04:01:35;;;;;;;21.70;14.15;;;;;;;9.12;100.00;99973.52;1771617;81;21337;-78
2022/04/10 04:04:03;;;;;;;19.37;12.82;;;;;;;9.18;100.00;99975.27;1772065;81;20988;-77
2022/04/10 04:06:30;;;;;;;18.15;12.88;;;;;;;9.20;100.00;99982.02;1749839;81;21902;-78
2022/04/10 04:08:59;;;;;;;23.32;13.70;;;;;;;9.24;100.00;100004.20;1771741;81;21355;-83
2022/04/10 04:11:27;;;;;;;23.62;12.33;;;;;;;9.32;100.00;100019.19;1771984;81;21058;-82
2022/04/10 04:13:56;;;;;;;21.62;12.35;;;;;;;9.39;100.00;100024.25;1772177;81;21090;-78
2022/04/10 04:16:24;;;;;;;19.50;12.37;;;;;;;9.45;100.00;100023.75;1771989;81;21571;-82
2022/04/10 04:18:51;;;;;;;21.20;12.88;;;;;;;9.51;100.00;100008.15;1771904;81;21113;-85
2022/04/10 04:21:21;;;;;;;16.93;12.45;;;;;;;9.54;100.00;100003.98;1764398;79;21547;-78
2022/04/10 04:23:50;;;;;;;19.65;12.93;;;;;;;9.55;100.00;100005.64;1764273;80;20996;-77
2022/04/10 04:26:18;;;;;;;22.50;13.08;;;;;;;9.58;100.00;99994.16;1773674;80;21035;-78
2022/04/10 04:28:45;;;;;;;18.98;12.60;;;;;;;9.60;100.00;99994.88;1773679;80;21043;-77
2022/04/10 04:31:12;;;;;;;16.60;11.85;;;;;;;9.64;100.00;99993.69;1773504;80;21151;-78
2022/04/10 04:33:40;;;;;;;22.95;13.10;;;;;;;9.67;100.00;99998.63;1773424;80;21510;-77
2022/04/10 04:36:07;;;;;;;20.37;12.63;;;;;;;9.71;100.00;99994.84;1773149;80;21055;-81
2022/04/10 04:38:36;;;;;;;18.60;13.25;;;;;;;9.75;100.00;99999.31;1773179;80;21014;-78
2022/04/10 04:41:05;;;;;;;18.27;12.43;;;;;;;9.79;100.00;100005.44;1772569;80;21029;-77
2022/04/10 04:43:33;;;;;;;18.17;12.07;;;;;;;9.83;100.00;100003.87;1768117;81;21219;-78
2022/04/10 04:46:00;;;;;;;21.30;12.43;;;;;;;9.88;100.00;100010.84;1772368;80;21499;-79
2022/04/10 04:48:28;;;;;;;22.55;13.13;;;;;;;9.94;100.00;100010.33;1768414;79;21049;-77
2022/04/10 04:50:57;;;;;;;19.30;12.55;;;;;;;9.97;100.00;100008.79;1768529;81;20994;-78
2022/04/10 04:53:26;;;;;;;22.25;11.75;;;;;;;10.00;100.00;100012.42;1764904;79;21013;-81
2022/04/10 04:55:53;;;;;;;21.40;12.50;;;;;;;10.03;100.00;100013.48;1772162;81;21233;-79
2022/04/10 04:58:21;;;;;;;21.65;12.88;;;;;;;10.05;100.00;100011.58;1771749;81;21101;-86
2022/04/10 05:00:49;;;;;;;18.23;12.37;;;;;;;10.08;100.00;100018.30;1772160;81;21006;-82
2022/04/10 05:03:17;;;;;;;21.00;12.75;;;;;;;10.10;100.00;100022.42;1772206;81;21332;-80
2022/04/10 05:05:45;;;;;;;19.27;12.07;;;;;;;10.16;100.00;100022.86;1772168;81;21033;-86
2022/04/10 05:08:16;;;;;;;18.93;11.50;;;;;;;10.20;100.00;100018.58;1767983;81;21069;-80
2022/04/10 05:10:47;;;;;;;20.50;12.37;;;;;;;10.23;100.00;100006.62;1774779;79;37477;-78
2022/04/10 05:13:17;;;;;;;19.60;13.05;;;;;;;10.26;100.00;100005.53;1753825;80;21045;-77
2022/04/10 05:15:46;;;;;;;21.75;12.25;;;;;;;10.29;100.00;100009.19;1782864;79;20982;-81
2022/04/10 05:18:17;;;;;;;19.40;12.25;;;;;;;10.31;100.00;100008.56;1799772;79;21026;-78
2022/04/10 05:20:46;;;;;;;20.02;12.20;;;;;;;10.34;100.00;100021.33;1801058;79;21905;-85
2022/04/10 05:23:17;;;;;;;17.98;10.60;;;;;;;10.35;100.00;100013.87;1799898;79;21582;-83
2022/04/10 05:25:49;;;;;;;28.67;12.18;;;;;;;10.40;100.00;100013.52;1791129;79;21002;-77
2022/04/10 05:28:19;;;;;;;38.13;11.90;;;;;;;10.43;100.00;100013.73;1782333;79;20975;-80
2022/04/10 05:30:47;;;;;;;21.25;12.37;;;;;;;10.48;100.00;100021.97;1782609;79;21076;-78
2022/04/10 05:33:17;;;;;;;18.45;11.18;;;;;;;10.50;100.00;100022.67;1790643;79;21892;-77
2022/04/10 05:35:47;;;;;;;20.37;11.93;;;;;;;10.52;100.00;100018.98;1776571;79;21028;-82
2022/04/10 05:38:15;;;;;;;23.27;12.33;;;;;;;10.55;100.00;100017.89;1779955;80;21048;-84
2022/04/10 05:40:52;;;;;;;19.87;11.15;;;;;;;10.54;100.00;100018.39;1780126;79;20997;-84
2022/04/10 05:43:14;;;;;;;18.25;10.85;;;;;;;10.57;100.00;100018.14;1780752;79;21523;-77
2022/04/10 05:45:42;;;;;;;17.37;11.78;;;;;;;10.62;100.00;100026.83;1779614;80;21137;-78
2022/04/10 05:48:10;;;;;;;16.87;10.85;;;;;;;10.68;100.00;100020.28;1779192;79;20989;-78
2022/04/10 05:50:37;;;;;;;22.40;11.57;;;;;;;10.77;100.00;100018.70;1779707;79;21076;-78
2022/04/10 05:53:05;;;;;;;19.30;11.57;;;;;;;10.83;100.00;100020.77;1779095;79;21041;-78
2022/04/10 05:55:35;;;;;;;22.50;11.48;;;;;;;10.92;100.00;100018.67;1772094;80;21563;-77
2022/04/10 05:58:04;;;;;;;17.35;11.03;;;;;;;11.01;100.00;100004.02;1770377;80;21087;-77
2022/04/10 06:00:40;;;;;;;19.87;11.73;;;;;;;11.11;100.00;100016.61;1770045;79;21030;-78
2022/04/10 06:03:12;;;;;;;17.98;11.43;;;;;;;11.20;100.00;100017.57;1749595;81;21052;-77
2022/04/10 06:05:41;;;;;;;18.48;11.60;;;;;;;11.29;100.00;100023.78;1764829;80;21672;-78
2022/04/10 06:08:15;;;;;;;19.00;11.10;;;;;;;11.36;100.00;100024.89;1757810;81;21085;-77
2022/04/10 06:10:43;;;;;;;21.02;11.55;;;;;;;11.45;100.00;100024.08;1765643;80;21093;-78
2022/04/10 06:13:12;;;;;;;20.10;11.25;;;;;;;11.53;100.00;100024.69;1765797;81;21623;-78
2022/04/10 06:15:45;;;;;;;17.82;10.50;;;;;;;11.55;100.00;100027.98;1757180;79;21007;-79
2022/04/10 06:18:14;;;;;;;19.12;11.65;;;;;;;11.54;100.00;100026.83;1735686;82;21080;-80
2022/04/10 06:20:43;;;;;;;15.45;10.45;;;;;;;11.52;100.00;100025.18;1735578;82;21051;-77
2022/04/10 06:23:12;;;;;;;20.92;11.25;;;;;;;11.51;100.00;100030.52;1753118;79;21155;-78
2022/04/10 06:25:41;;;;;;;14.40;10.95;;;;;;;11.51;100.00;100024.83;1763958;81;21042;-77
2022/04/10 06:28:14;;;;;;;20.88;11.18;;;;;;;11.48;100.00;100022.48;1761063;79;22341;-77
2022/04/10 06:30:44;;;;;;;17.75;10.95;;;;;;;11.48;100.00;100025.59;1747995;80;21556;-77
2022/04/10 06:33:14;;;;;;;20.90;12.23;;;;;;;11.45;100.00;100022.78;1735374;81;21071;-82
2022/04/10 06:35:41;;;;;;;19.42;11.78;;;;;;;11.42;100.00;100020.89;1735432;82;21521;-78
2022/04/10 06:38:10;;;;;;;18.15;11.53;;;;;;;11.38;100.00;100022.94;1735106;82;21614;-81
2022/04/10 06:40:38;;;;;;;17.10;10.28;;;;;;;11.38;100.00;100024.25;1745767;81;21053;-79
2022/04/10 06:43:07;;;;;;;20.17;10.88;;;;;;;11.39;100.00;100025.90;1764322;79;21014;-84
2022/04/10 06:45:45;;;;;;;18.10;12.25;;;;;;;11.44;100.00;100032.02;1648981;85;21469;-77
2022/04/10 06:48:15;;;;;;;22.73;11.45;;;;;;;11.51;100.00;100031.35;1753808;80;21125;-87
2022/04/10 06:50:44;;;;;;;22.70;11.03;;;;;;;11.64;100.00;100025.88;1760765;80;21477;-80
2022/04/10 06:53:19;;;;;;;26.57;12.03;;;;;;;11.83;100.00;100023.74;1756416;79;21520;-82
2022/04/10 06:55:47;;;;;;;21.02;11.85;;;;;;;12.12;100.00;100038.57;1774360;79;20944;-80
2022/04/10 06:58:17;;;;;;;18.87;10.93;;;;;;;12.38;100.00;100039.28;1775330;80;21055;-82
2022/04/10 07:00:44;;;;;;;16.60;11.15;;;;;;;12.63;100.00;100039.12;1768816;80;21111;-80
2022/04/10 07:03:12;;;;;;;23.55;11.60;;;;;;;12.88;100.00;100039.45;1731726;82;21041;-81
2022/04/10 07:05:40;;;;;;;19.60;11.80;;;;;;;13.10;100.00;100042.63;1765219;80;21003;-83
2022/04/10 07:08:11;;;;;;;21.37;11.65;;;;;;;13.32;100.00;100041.91;1759433;80;21038;-80
2022/04/10 07:10:38;;;;;;;19.67;10.90;;;;;;;13.53;100.00;100050.33;1731565;82;21054;-84
2022/04/10 07:13:08;;;;;;;14.10;10.18;;;;;;;13.75;100.00;100041.69;1732058;82;21034;-81
2022/04/10 07:15:35;;;;;;;25.37;10.93;;;;;;;13.91;100.00;100038.41;1765819;80;21655;-81
2022/04/10 07:18:05;;;;;;;20.90;11.10;;;;;;;14.02;100.00;100039.45;1766134;80;21039;-82
2022/04/10 07:20:33;;;;;;;16.35;10.78;;;;;;;14.12;100.00;100038.55;1731881;82;21018;-82
2022/04/10 07:25:50;;;;;;;19.20;10.90;;;;;;;14.31;100.00;100043.61;1730723;82;22245;-81
2022/04/10 07:28:18;;;;;;;18.75;11.03;;;;;;;14.43;100.00;100048.10;1717188;82;21713;-81
2022/04/10 07:30:48;;;;;;;16.30;11.05;;;;;;;14.55;100.00;100043.89;1716118;81;21088;-80
2022/04/10 07:33:17;;;;;;;17.25;10.60;;;;;;;14.71;100.00;100041.39;1694005;83;21030;-80
2022/04/10 07:35:47;;;;;;;135.43;67.43;;;;;;;14.85;100.00;100035.25;1714658;82;21038;-80
2022/04/10 07:38:17;;;;;;;294.13;141.18;;;;;;;14.92;100.00;100036.26;1698106;82;21909;-80
2022/04/10 07:40:46;;;;;;;234.72;116.22;;;;;;;14.96;100.00;100039.72;1687786;85;21112;-82
2022/04/10 07:43:17;;;;;;;114.77;53.40;;;;;;;15.01;100.00;100041.87;1694788;83;20995;-80
2022/04/10 07:48:47;;;;;;;50.30;23.90;;;;;;;15.31;100.00;100038.34;1712830;83;21105;-82
2022/04/10 07:51:16;;;;;;;43.80;21.35;;;;;;;15.49;100.00;100040.02;1734904;81;21142;-81
2022/04/10 07:53:48;;;;;;;98.00;43.58;;;;;;;15.54;100.00;100045.09;1735521;82;20997;-81
2022/04/10 07:56:15;;;;;;;47.38;21.15;;;;;;;15.59;100.00;100047.23;1732225;82;21052;-81
2022/04/10 07:58:42;;;;;;;50.43;25.85;;;;;;;15.60;100.00;100043.16;1731959;82;21079;-81
2022/04/10 08:01:19;;;;;;;33.35;15.90;;;;;;;15.61;100.00;100045.27;1731545;82;21055;-80
2022/04/10 08:03:51;;;;;;;112.17;46.85;;;;;;;15.68;100.00;100047.58;1706201;82;20953;-80
2022/04/10 08:06:37;;;;;;;56.58;25.27;;;;;;;15.76;100.00;100050.20;1741300;81;21036;-82
2022/04/10 08:09:05;;;;;;;86.40;46.83;;;;;;;15.88;100.00;100047.30;1771012;80;21020;-83
2022/04/10 08:11:33;;;;;;;164.80;75.30;;;;;;;16.00;100.00;100049.11;1771334;80;21046;-86
2022/04/10 08:14:01;;;;;;;130.00;60.17;;;;;;;16.12;100.00;100045.15;1771631;80;21580;-85
2022/04/10 08:16:28;;;;;;;50.23;24.18;;;;;;;16.22;100.00;100049.74;1771714;80;21833;-83
2022/04/10 08:18:56;;;;;;;23.83;13.75;;;;;;;16.32;100.00;100048.24;1771601;81;21562;-84
2022/04/10 08:21:24;;;;;;;17.80;11.03;;;;;;;16.44;100.00;100043.45;1771918;81;21098;-88
2022/04/10 08:23:53;;;;;;;137.97;61.50;;;;;;;16.54;100.00;100038.03;1771537;80;21149;-81
2022/04/10 08:26:20;;;;;;;50.50;24.35;;;;;;;16.62;100.00;100034.55;1771568;80;21051;-81
2022/04/10 08:28:48;;;;;;;72.22;33.30;;;;;;;16.72;100.00;100037.81;1771739;80;21893;-80
2022/04/10 08:31:17;;;;;;;20.52;12.03;;;;;;;16.88;100.00;100034.28;1705136;81;20993;-80
2022/04/10 08:33:44;;;;;;;27.35;14.53;;;;;;;17.09;100.00;100028.47;1731307;81;21064;-82
2022/04/10 08:36:12;;;;;;;61.75;33.00;;;;;;;17.34;100.00;100028.33;1731014;82;21521;-82
2022/04/10 08:38:39;;;;;;;104.12;50.52;;;;;;;17.56;100.00;100028.51;1732488;82;21123;-81
2022/04/10 08:41:08;;;;;;;28.30;13.55;;;;;;;17.71;100.00;100029.38;1731664;82;21135;-80
2022/04/10 08:43:38;;;;;;;14.55;9.33;;;;;;;17.79;100.00;100028.52;1771743;80;21019;-81
2022/04/10 08:46:06;;;;;;;118.90;64.87;;;;;;;17.83;100.00;100028.46;1771770;80;21081;-81
2022/04/10 08:48:36;;;;;;;109.90;56.92;;;;;;;17.83;100.00;100019.25;1769296;80;21493;-81
2022/04/10 08:51:05;;;;;;;55.45;27.27;;;;;;;17.82;100.00;100020.27;1771759;81;21016;-80
2022/04/10 08:53:35;;;;;;;20.43;12.05;;;;;;;17.85;100.00;100019.09;1757604;79;21199;-82
2022/04/10 08:56:02;;;;;;;17.95;9.10;;;;;;;17.92;100.00;100016.06;1754156;80;21090;-81
2022/04/10 08:58:31;;;;;;;66.85;36.25;;;;;;;18.03;100.00;100014.84;1773323;80;21125;-81
2022/04/10 09:00:58;;;;;;;26.68;14.85;;;;;;;18.14;98.27;100017.05;1773539;79;20998;-80
2022/04/10 09:03:27;;;;;;;34.10;12.78;;;;;;;18.27;100.00;100009.33;1767587;79;21041;-80
2022/04/10 09:06:10;;;;;;;16.95;9.30;;;;;;;18.44;95.62;100010.48;1766141;79;20974;-80
2022/04/10 09:08:38;;;;;;;31.27;14.40;;;;;;;18.53;93.52;100005.44;1764769;80;21038;-80
2022/04/10 09:11:10;;;;;;;59.08;26.35;;;;;;;18.63;92.86;99997.23;1765191;79;21754;-79
2022/04/10 09:13:46;;;;;;;44.18;16.40;;;;;;;18.69;89.16;99997.02;1771011;80;21039;-79
2022/04/10 09:16:18;;;;;;;57.05;25.02;;;;;;;18.66;88.48;99996.05;1765306;80;21598;-80
2022/04/10 09:19:00;;;;;;;25.15;9.93;;;;;;;18.63;86.69;99997.75;1771010;79;21590;-80
2022/04/10 09:21:35;;;;;;;23.80;11.65;;;;;;;18.62;88.62;99996.92;1765581;80;21061;-81
2022/04/10 09:24:08;;;;;;;12.47;8.35;;;;;;;18.72;86.21;99993.98;1760916;79;21050;-82
2022/04/10 09:26:57;;;;;;;38.55;20.72;;;;;;;18.81;86.73;99996.84;1751854;79;21057;-81
2022/04/10 09:29:26;;;;;;;24.40;12.05;;;;;;;18.95;85.78;100007.61;1738136;81;21086;-80
2022/04/10 09:31:54;;;;;;;18.50;9.10;;;;;;;19.11;84.50;100001.27;1769529;79;21130;-80
2022/04/10 09:34:25;;;;;;;25.80;11.55;;;;;;;19.23;82.93;100000.60;1763447;79;21030;-80
2022/04/10 09:37:07;;;;;;;47.40;16.80;;;;;;;19.33;80.31;100000.80;1768574;79;21539;-79
2022/04/10 09:39:35;;;;;;;24.77;11.03;;;;;;;19.35;78.39;99994.80;1741370;81;21071;-80
2022/04/10 09:42:08;;;;;;;14.00;8.03;;;;;;;19.34;79.03;99994.00;1740498;82;21024;-80
2022/04/10 09:44:38;;;;;;;10.68;6.58;;;;;;;19.38;77.57;99994.45;1740303;82;21156;-81
2022/04/10 09:47:09;;;;;;;24.35;10.05;;;;;;;19.47;77.98;99996.47;1740488;82;21090;-85
2022/04/10 09:49:39;;;;;;;19.37;7.92;;;;;;;19.58;76.47;99994.63;1749051;81;21089;-84
2022/04/10 09:52:11;;;;;;;;;;;;;;;19.70;76.02;99993.61;1760414;79;21027;-81
2022/04/10 09:54:42;;;;;;;36.23;14.53;;;;;;;19.79;75.22;99992.98;1760371;79;20235;-81
2022/04/10 09:57:15;;;;;;;19.73;8.10;;;;;;;19.84;75.47;99995.38;1756563;79;21242;-82
2022/04/10 09:59:47;;;;;;;34.23;14.50;;;;;;;19.97;75.80;99987.25;1751738;79;21014;-85
2022/04/10 10:02:18;;;;;;;31.85;11.60;;;;;;;20.10;72.92;99987.84;1747170;80;21838;-80
2022/04/10 10:04:47;;;;;;;22.52;9.85;;;;;;;20.22;75.03;99989.45;1755574;81;21047;-82
2022/04/10 10:07:20;;;;;;;25.37;10.38;;;;;;;20.36;73.09;99988.51;1758500;79;21061;-79
2022/04/10 10:09:50;;;;;;;17.62;9.28;;;;;;;20.46;71.13;99992.95;1759367;81;21089;-80
2022/04/10 10:12:18;;;;;;;18.50;9.80;;;;;;;20.44;70.28;99990.16;1761374;79;21047;-80
2022/04/10 10:14:45;;;;;;;20.10;8.50;;;;;;;20.40;69.64;99991.06;1737588;80;21038;-90
2022/04/10 10:17:14;;;;;;;17.42;8.20;;;;;;;20.33;69.23;99988.39;1749886;80;21643;-80
2022/04/10 10:19:43;;;;;;;22.82;8.75;;;;;;;20.24;69.54;99988.73;1749664;80;21035;-83
2022/04/10 10:22:15;;;;;;;24.45;10.20;;;;;;;20.16;70.09;99995.80;1749971;80;21038;-80
2022/04/10 10:25:15;;;;;;;36.17;15.00;;;;;;;20.08;68.24;99988.02;1749821;81;21002;-81
2022/04/10 10:28:12;;;;;;;25.68;11.88;;;;;;;19.96;67.32;100000.95;1735889;80;21535;-85
2022/04/10 10:30:57;;;;;;;19.15;10.00;;;;;;;19.79;67.71;99999.07;1746716;80;21097;-79
2022/04/10 10:33:27;;;;;;;21.97;10.35;;;;;;;19.70;68.64;100006.81;1721843;81;21002;-82
2022/04/10 10:35:59;;;;;;;30.15;13.85;;;;;;;19.70;68.40;100000.21;1745141;81;21260;-81
2022/04/10 10:38:32;;;;;;;12.78;6.67;;;;;;;19.72;67.54;100004.81;1766033;80;21816;-80
2022/04/10 10:41:22;;;;;;;12.45;6.87;;;;;;;19.76;68.55;99996.80;1766567;80;21093;-80
2022/04/10 10:43:50;;;;;;;14.10;6.67;;;;;;;19.87;68.96;99986.24;1763655;79;21057;-80
2022/04/10 10:46:28;;;;;;;12.50;6.00;;;;;;;20.03;68.90;99998.36;1747730;80;21040;-87
2022/04/10 10:49:19;;;;;;;20.80;10.53;;;;;;;20.20;68.67;99990.94;1769799;79;21087;-81
2022/04/10 10:51:50;;;;;;;15.63;9.58;;;;;;;20.46;71.39;99990.78;1738829;82;21576;-80
2022/04/10 10:54:35;;;;;;;18.57;7.62;;;;;;;20.89;70.43;99987.13;1739248;82;21048;-82
2022/04/10 10:57:25;;;;;;;21.60;9.58;;;;;;;21.22;70.31;99975.81;1750683;79;20990;-81
2022/04/10 11:00:11;;;;;;;15.20;8.40;;;;;;;21.51;66.79;99979.13;1726063;80;21621;-80
2022/04/10 11:02:42;;;;;;;17.07;8.45;;;;;;;21.68;65.90;99971.08;1773775;79;21154;-84
2022/04/10 11:05:31;;;;;;;18.05;9.15;;;;;;;21.84;64.63;99982.28;1777293;80;21582;-86
2022/04/10 11:08:09;;;;;;;10.78;7.12;;;;;;;21.93;63.37;99982.38;1753477;80;21089;-81
2022/04/10 11:10:54;;;;;;;9.40;6.42;;;;;;;22.02;60.28;99976.38;1732476;82;20944;-80
2022/04/10 11:13:23;;;;;;;20.55;9.40;;;;;;;21.90;59.85;99983.61;1729011;82;21105;-82
2022/04/10 11:15:56;;;;;;;16.95;9.53;;;;;;;21.77;61.06;99986.77;1747759;80;22224;-83
2022/04/10 11:18:35;;;;;;;20.55;10.95;;;;;;;21.65;61.33;99983.43;1709265;82;21050;-80
2022/04/10 11:21:21;;;;;;;11.90;6.67;;;;;;;21.52;58.51;99982.88;1747746;79;21101;-81
2022/04/10 11:23:49;;;;;;;13.45;6.80;;;;;;;21.37;59.51;99985.70;1768878;79;20971;-80
2022/04/10 11:26:20;;;;;;;8.90;4.78;;;;;;;21.25;60.11;99977.55;1750379;79;21047;-80
2022/04/10 11:29:04;;;;;;;8.10;5.03;;;;;;;21.19;60.29;99972.26;1759830;80;21602;-83
2022/04/10 11:31:35;;;;;;;22.62;13.60;;;;;;;21.08;60.34;99967.85;1765906;79;21036;-81
2022/04/10 11:34:12;;;;;;;22.65;12.07;;;;;;;20.99;60.13;99967.73;1766388;80;21013;-80